Time;durP1;ratioP1;P1;durP2;ratioP2;P2;SDS_P1;SDS_P2;PMS_P1;PMS_P2;Temp;Humidity;BMP_temperature;BMP_pressure;BME280_temperature;BME280_humidity;BME280_pressure;Samples;Min_cycle;Max_cycle;Signal;HPM_P1;HPM_P2
2021/06/07 00:02:02;;;;;;;3.47;1.42;;;14.50;77.20;;;;;;5057369;28;20032;-75
2021/06/07 00:04:29;;;;;;;14.27;1.83;;;14.50;77.30;;;;;;5055854;28;20033;-75
2021/06/07 00:06:56;;;;;;;5.93;2.15;;;14.40;77.70;;;;;;5056921;28;20025;-76
2021/06/07 00:09:22;;;;;;;5.65;1.90;;;14.40;77.80;;;;;;5055788;28;20037;-75
2021/06/07 00:11:52;;;;;;;5.20;1.83;;;14.40;77.80;;;;;;5055795;28;20066;-76
2021/06/07 00:14:20;;;;;;;1.92;1.13;;;14.30;78.00;;;;;;5057099;28;20017;-75
2021/06/07 00:16:46;;;;;;;5.15;1.65;;;14.30;78.70;;;;;;5055759;28;20025;-75
2021/06/07 00:19:16;;;;;;;3.38;1.48;;;14.20;78.30;;;;;;5039036;28;20364;-75
2021/06/07 00:21:43;;;;;;;6.18;2.13;;;14.20;78.50;;;;;;5055331;28;20021;-75
2021/06/07 00:24:09;;;;;;;5.85;1.73;;;14.20;78.70;;;;;;5056767;28;20021;-75
2021/06/07 00:26:35;;;;;;;4.40;1.85;;;14.10;78.80;;;;;;5055528;28;20155;-75
2021/06/07 00:29:00;;;;;;;5.25;2.08;;;14.00;78.90;;;;;;5055620;28;20492;-74
2021/06/07 00:31:26;;;;;;;5.00;1.60;;;14.00;79.20;;;;;;5039173;28;20017;-74
2021/06/07 00:33:52;;;;;;;9.20;1.98;;;13.90;79.40;;;;;;5057145;28;20040;-75
2021/06/07 00:36:22;;;;;;;5.32;2.05;;;13.80;79.50;;;;;;5038453;28;20021;-74
2021/06/07 00:38:52;;;;;;;4.53;1.70;;;13.90;79.80;;;;;;5055190;28;20021;-75
2021/06/07 00:41:19;;;;;;;6.45;1.90;;;13.90;80.00;;;;;;5055378;28;20021;-75
2021/06/07 00:43:45;;;;;;;3.08;1.90;;;13.80;80.10;;;;;;5055091;28;20052;-75
2021/06/07 00:46:12;;;;;;;3.85;2.10;;;13.80;80.20;;;;;;5055248;28;20052;-75
2021/06/07 00:48:38;;;;;;;5.05;1.90;;;13.80;80.40;;;;;;5056623;28;20452;-75
2021/06/07 00:51:08;;;;;;;5.00;1.60;;;13.80;80.40;;;;;;5056272;28;20496;-75
2021/06/07 00:53:34;;;;;;;3.80;1.70;;;13.80;80.60;;;;;;5056396;28;20044;-75
2021/06/07 00:56:07;;;;;;;3.58;1.80;;;13.80;80.70;;;;;;5056228;28;20507;-75
2021/06/07 00:58:39;;;;;;;2.65;1.30;;;13.80;80.70;;;;;;5056189;28;20032;-75
2021/06/07 01:01:06;;;;;;;4.53;1.50;;;13.80;80.80;;;;;;5055046;28;20017;-75
2021/06/07 01:03:33;;;;;;;3.70;1.73;;;13.80;80.80;;;;;;5054837;28;20544;-75
2021/06/07 01:05:59;;;;;;;2.85;1.25;;;13.70;80.70;;;;;;5037927;28;20392;-75
2021/06/07 01:08:25;;;;;;;6.00;1.85;;;13.70;80.80;;;;;;5054642;28;20139;-75
2021/06/07 01:10:52;;;;;;;4.28;1.55;;;13.70;81.00;;;;;;5054365;28;20118;-76
2021/06/07 01:13:19;;;;;;;3.85;1.83;;;13.70;81.10;;;;;;5055793;28;20021;-75
2021/06/07 01:15:47;;;;;;;4.13;1.95;;;13.60;81.00;;;;;;5055856;28;20079;-75
2021/06/07 01:18:15;;;;;;;5.28;1.83;;;13.60;81.00;;;;;;5055757;28;20090;-75
2021/06/07 01:20:42;;;;;;;6.03;2.03;;;13.50;81.00;;;;;;5056108;28;20113;-75
2021/06/07 01:23:08;;;;;;;7.93;2.03;;;13.50;81.10;;;;;;5054647;28;20029;-75
2021/06/07 01:25:37;;;;;;;4.60;1.90;;;13.50;81.20;;;;;;5055761;28;20095;-75
2021/06/07 01:28:07;;;;;;;4.20;1.70;;;13.50;81.30;;;;;;5055640;28;20044;-76
2021/06/07 01:30:38;;;;;;;3.83;2.03;;;13.40;81.40;;;;;;5055775;28;20025;-75
2021/06/07 01:33:07;;;;;;;6.82;1.77;;;13.30;81.50;;;;;;5055499;28;20021;-75
2021/06/07 01:35:33;;;;;;;5.22;1.52;;;13.30;81.60;;;;;;5037633;28;20055;-75
2021/06/07 01:37:58;;;;;;;6.40;2.00;;;13.20;81.80;;;;;;5054252;28;20021;-75
2021/06/07 01:40:33;;;;;;;3.65;1.50;;;13.20;81.80;;;;;;5037331;28;20032;-75
2021/06/07 01:42:59;;;;;;;4.55;1.27;;;13.20;82.00;;;;;;5055536;28;20013;-75
2021/06/07 01:45:27;;;;;;;5.10;1.73;;;13.20;82.00;;;;;;5054826;28;20068;-75
2021/06/07 01:47:53;;;;;;;3.58;1.42;;;13.20;82.20;;;;;;5055175;28;20357;-75
2021/06/07 01:50:19;;;;;;;4.10;1.80;;;13.10;82.30;;;;;;5055112;28;20021;-75
2021/06/07 01:52:48;;;;;;;4.07;1.30;;;13.10;82.10;;;;;;5053941;28;20427;-75
2021/06/07 01:55:23;;;;;;;5.50;2.15;;;13.10;82.20;;;;;;5053827;28;20017;-75
2021/06/07 01:57:50;;;;;;;4.35;1.55;;;13.10;82.30;;;;;;5053812;28;20013;-75
2021/06/07 02:00:41;;;;;;;4.78;1.50;;;13.10;82.30;;;;;;5053792;28;20033;-76
2021/06/07 02:03:08;;;;;;;4.90;1.35;;;13.10;82.30;;;;;;5055090;28;20017;-74
2021/06/07 02:05:37;;;;;;;7.38;1.20;;;13.00;82.20;;;;;;5053705;28;20028;-75
2021/06/07 02:08:10;;;;;;;3.58;1.20;;;13.00;82.10;;;;;;5053785;28;20048;-75
2021/06/07 02:10:39;;;;;;;3.70;1.45;;;13.00;82.10;;;;;;5067841;28;20063;-75
2021/06/07 02:13:05;;;;;;;6.65;1.60;;;13.00;82.10;;;;;;5073106;28;20123;-75
2021/06/07 02:15:32;;;;;;;6.35;1.30;;;13.00;82.10;;;;;;5074152;28;20410;-75
2021/06/07 02:18:03;;;;;;;2.28;1.05;;;13.00;82.10;;;;;;5056332;28;20074;-75
2021/06/07 02:20:29;;;;;;;3.13;1.00;;;12.90;82.20;;;;;;5072906;28;20059;-75
2021/06/07 02:22:55;;;;;;;3.30;1.40;;;12.90;82.20;;;;;;5074717;28;20028;-75
2021/06/07 02:25:21;;;;;;;3.70;1.50;;;12.90;82.30;;;;;;5072873;28;20527;-75
2021/06/07 02:27:49;;;;;;;6.63;1.50;;;12.80;82.20;;;;;;5073094;28;20369;-75
2021/06/07 02:30:19;;;;;;;5.75;1.55;;;12.80;82.20;;;;;;5073231;28;20487;-76
2021/06/07 02:32:45;;;;;;;4.45;1.33;;;12.80;82.30;;;;;;5072897;28;20111;-75
2021/06/07 02:35:13;;;;;;;3.83;1.48;;;12.70;82.20;;;;;;5073385;28;20032;-75
2021/06/07 02:37:39;;;;;;;4.35;1.55;;;12.70;82.30;;;;;;5056888;28;20074;-75
2021/06/07 02:40:11;;;;;;;2.95;1.15;;;12.70;82.30;;;;;;5056473;28;20029;-75
2021/06/07 02:42:43;;;;;;;3.17;1.15;;;12.70;82.30;;;;;;5131012;27;20604;-75
2021/06/07 02:45:12;;;;;;;2.70;1.23;;;12.70;82.50;;;;;;5110205;28;20032;-75
2021/06/07 02:47:39;;;;;;;3.85;1.38;;;12.70;82.50;;;;;;5111177;28;20099;-75
2021/06/07 02:50:08;;;;;;;3.38;1.45;;;12.70;82.50;;;;;;5093250;28;20024;-75
2021/06/07 02:52:33;;;;;;;3.42;1.38;;;12.70;82.40;;;;;;5109854;28;20020;-75
2021/06/07 02:54:59;;;;;;;2.28;1.23;;;12.70;82.40;;;;;;5076073;28;20114;-75
2021/06/07 02:57:25;;;;;;;5.97;1.50;;;12.70;83.10;;;;;;5110855;28;20024;-75
2021/06/07 02:59:50;;;;;;;7.43;1.50;;;12.70;82.50;;;;;;5109414;28;20352;-75
2021/06/07 03:02:16;;;;;;;4.60;1.30;;;12.60;82.40;;;;;;5111203;28;20027;-75
2021/06/07 03:04:42;;;;;;;2.65;1.27;;;12.60;82.40;;;;;;5092826;28;20028;-75
2021/06/07 03:07:08;;;;;;;3.70;1.40;;;12.60;82.50;;;;;;5110737;28;20417;-75
2021/06/07 03:09:33;;;;;;;3.53;1.60;;;12.60;82.60;;;;;;5089366;28;20169;-75
2021/06/07 03:12:01;;;;;;;4.43;1.40;;;12.50;82.70;;;;;;5055689;28;20059;-75
2021/06/07 03:14:27;;;;;;;3.75;1.35;;;12.60;82.80;;;;;;5089634;28;20032;-75
2021/06/07 03:16:52;;;;;;;3.15;1.48;;;12.50;82.80;;;;;;5055867;28;20028;-75
2021/06/07 03:19:18;;;;;;;3.10;1.40;;;12.50;82.90;;;;;;5072057;28;20035;-75
2021/06/07 03:21:44;;;;;;;6.60;1.60;;;12.50;82.90;;;;;;5090389;28;20384;-75
2021/06/07 03:24:09;;;;;;;4.53;1.55;;;12.50;83.50;;;;;;5072305;28;20028;-75
2021/06/07 03:26:35;;;;;;;4.97;1.38;;;12.50;82.90;;;;;;5072242;28;20035;-76
2021/06/07 03:29:01;;;;;;;3.47;1.40;;;12.50;83.00;;;;;;5089000;28;20028;-75
2021/06/07 03:31:26;;;;;;;5.13;1.92;;;12.50;83.00;;;;;;5071998;28;20032;-75
2021/06/07 03:33:52;;;;;;;4.18;1.50;;;12.40;83.20;;;;;;5090320;28;20028;-75
2021/06/07 03:36:18;;;;;;;2.83;1.20;;;12.50;83.30;;;;;;5088996;28;20031;-75
2021/06/07 03:38:44;;;;;;;3.20;1.52;;;12.40;83.20;;;;;;5088597;28;20025;-75
2021/06/07 03:41:09;;;;;;;3.85;1.65;;;12.50;83.70;;;;;;5071313;28;20045;-75
2021/06/07 03:43:37;;;;;;;4.47;1.55;;;12.50;83.60;;;;;;5088575;28;20062;-75
2021/06/07 03:46:04;;;;;;;3.47;1.50;;;12.50;83.60;;;;;;5090126;28;20361;-76
2021/06/07 03:48:30;;;;;;;4.20;1.70;;;12.50;83.60;;;;;;5088761;28;20469;-75
2021/06/07 03:50:56;;;;;;;2.72;1.40;;;12.50;83.60;;;;;;5088490;28;20039;-75
2021/06/07 03:53:22;;;;;;;3.67;1.58;;;12.50;83.60;;;;;;5080077;28;20028;-75
2021/06/07 03:55:48;;;;;;;8.48;2.03;;;12.50;83.60;;;;;;5074882;28;20507;-75
2021/06/07 03:58:14;;;;;;;3.38;1.35;;;12.50;83.60;;;;;;5076349;28;20368;-75
2021/06/07 04:00:40;;;;;;;3.65;1.55;;;12.50;83.70;;;;;;5072811;28;20033;-75
2021/06/07 04:03:08;;;;;;;3.78;1.50;;;12.60;83.80;;;;;;5074561;28;20056;-76
2021/06/07 04:05:35;;;;;;;4.55;1.50;;;12.50;83.70;;;;;;5074508;28;20031;-75
2021/06/07 04:08:02;;;;;;;3.95;1.30;;;12.50;83.60;;;;;;5075385;28;20539;-75
2021/06/07 04:10:28;;;;;;;4.32;1.38;;;12.60;83.70;;;;;;5074418;28;20032;-75
2021/06/07 04:12:54;;;;;;;6.65;1.65;;;12.60;83.70;;;;;;5075793;28;20099;-75
2021/06/07 04:15:22;;;;;;;2.63;1.35;;;12.60;83.70;;;;;;5074046;28;20019;-75
2021/06/07 04:17:49;;;;;;;2.97;1.33;;;12.60;83.70;;;;;;5075558;28;20029;-75
2021/06/07 04:20:19;;;;;;;3.22;1.25;;;12.60;83.70;;;;;;5074199;28;20029;-75
2021/06/07 04:22:45;;;;;;;3.00;1.20;;;12.60;83.60;;;;;;5074612;28;20112;-75
2021/06/07 04:25:13;;;;;;;4.63;1.23;;;12.60;83.60;;;;;;5074265;28;20471;-75
2021/06/07 04:27:39;;;;;;;4.35;1.52;;;12.70;83.70;;;;;;5075616;28;20455;-75
2021/06/07 04:30:07;;;;;;;4.97;1.45;;;12.70;83.70;;;;;;5041088;28;20025;-76
2021/06/07 04:32:34;;;;;;;5.38;1.15;;;12.70;83.60;;;;;;5074141;28;20021;-75
2021/06/07 04:35:00;;;;;;;4.03;1.33;;;12.80;83.60;;;;;;5041004;28;20016;-75
2021/06/07 04:37:29;;;;;;;2.78;1.10;;;12.90;83.50;;;;;;5041630;28;20032;-75
2021/06/07 04:39:55;;;;;;;3.97;1.17;;;12.90;83.40;;;;;;5058173;28;20036;-75
2021/06/07 04:42:21;;;;;;;2.95;1.08;;;13.00;83.40;;;;;;5057357;28;20510;-75
2021/06/07 04:44:47;;;;;;;2.35;1.20;;;13.00;83.30;;;;;;5074092;28;20028;-75
2021/06/07 04:47:13;;;;;;;3.90;0.95;;;13.10;83.20;;;;;;5074506;28;20060;-74
2021/06/07 04:49:39;;;;;;;4.25;1.00;;;13.10;82.90;;;;;;5073963;28;20032;-75
2021/06/07 04:52:05;;;;;;;3.55;1.30;;;13.10;82.70;;;;;;5057343;28;20025;-75
2021/06/07 04:54:31;;;;;;;3.78;1.23;;;13.20;82.60;;;;;;5075229;28;20031;-75
2021/06/07 04:56:56;;;;;;;3.42;1.40;;;13.30;82.60;;;;;;5057192;28;20388;-77
2021/06/07 04:59:22;;;;;;;4.05;1.35;;;13.30;82.50;;;;;;5073930;28;20028;-76
2021/06/07 05:01:48;;;;;;;3.85;0.98;;;13.30;82.60;;;;;;5073606;28;20369;-76
2021/06/07 05:04:14;;;;;;;4.10;0.82;;;13.40;82.60;;;;;;5056053;28;20079;-76
2021/06/07 05:06:39;;;;;;;4.22;1.10;;;13.40;82.50;;;;;;5056908;28;20064;-76
2021/06/07 05:09:05;;;;;;;3.55;1.00;;;13.50;82.20;;;;;;5074610;28;20178;-75
2021/06/07 05:11:31;;;;;;;2.05;0.82;;;13.50;81.80;;;;;;5073294;28;20028;-76
2021/06/07 05:13:57;;;;;;;2.60;1.20;;;13.50;81.30;;;;;;5056789;28;20040;-75
2021/06/07 05:16:22;;;;;;;4.93;0.90;;;13.60;80.80;;;;;;5073407;28;20029;-76
2021/06/07 05:18:48;;;;;;;2.30;0.80;;;13.60;80.50;;;;;;5055928;28;20035;-76
2021/06/07 05:21:14;;;;;;;2.70;0.65;;;13.70;80.30;;;;;;5056462;28;20505;-75
2021/06/07 05:23:41;;;;;;;2.78;0.95;;;13.70;80.30;;;;;;5073013;28;20033;-75
2021/06/07 05:26:07;;;;;;;2.47;0.65;;;13.70;80.20;;;;;;5074264;28;20058;-75
2021/06/07 05:28:33;;;;;;;2.15;0.75;;;13.80;80.10;;;;;;5074656;28;20560;-75
2021/06/07 05:30:59;;;;;;;4.20;0.95;;;13.80;79.90;;;;;;5074378;28;20029;-75
2021/06/07 05:33:25;;;;;;;1.58;0.63;;;13.80;79.80;;;;;;5056202;28;20029;-75
2021/06/07 05:35:52;;;;;;;2.47;0.70;;;13.90;79.80;;;;;;5073022;28;20469;-74
2021/06/07 05:38:19;;;;;;;3.58;1.13;;;13.90;79.70;;;;;;5074275;28;20028;-76
2021/06/07 05:40:47;;;;;;;5.28;0.90;;;13.90;79.60;;;;;;5056315;28;20028;-75
2021/06/07 05:43:17;;;;;;;7.93;1.20;;;13.90;79.40;;;;;;5074086;28;20374;-75
2021/06/07 05:45:43;;;;;;;1.88;0.85;;;14.00;79.40;;;;;;5073987;28;20028;-74
2021/06/07 05:48:09;;;;;;;2.47;0.80;;;14.00;79.30;;;;;;5073144;28;20021;-75
2021/06/07 05:50:35;;;;;;;1.77;0.60;;;14.00;79.10;;;;;;5072583;28;20020;-75
2021/06/07 05:53:01;;;;;;;5.28;0.65;;;14.10;79.00;;;;;;5073608;28;20020;-75
2021/06/07 05:55:35;;;;;;;5.85;0.70;;;14.10;78.80;;;;;;5072851;28;20107;-75
2021/06/07 05:58:04;;;;;;;4.20;0.77;;;14.10;78.80;;;;;;5072356;28;20016;-76
2021/06/07 06:00:32;;;;;;;3.85;0.70;;;14.20;78.70;;;;;;5072391;28;20033;-75
2021/06/07 06:02:58;;;;;;;1.52;0.60;;;14.20;78.60;;;;;;5071767;28;20012;-75
2021/06/07 06:05:24;;;;;;;2.45;0.60;;;14.30;78.70;;;;;;5073796;28;20029;-75
2021/06/07 06:07:50;;;;;;;4.68;0.80;;;14.30;78.70;;;;;;5072354;28;20119;-75
2021/06/07 06:10:16;;;;;;;2.47;0.80;;;14.40;78.60;;;;;;5072420;28;20052;-77
2021/06/07 06:12:43;;;;;;;4.45;0.60;;;14.40;78.50;;;;;;5055802;28;20443;-77
2021/06/07 06:15:11;;;;;;;1.63;0.50;;;14.40;78.10;;;;;;5073285;28;20032;-76
2021/06/07 06:17:37;;;;;;;2.42;0.50;;;14.50;78.10;;;;;;5072267;28;20479;-77
2021/06/07 06:20:04;;;;;;;3.42;0.70;;;14.50;77.80;;;;;;5072216;28;20033;-77
2021/06/07 06:22:30;;;;;;;3.40;0.80;;;14.50;77.70;;;;;;5073112;28;20862;-77
2021/06/07 06:24:55;;;;;;;2.67;0.98;;;14.60;77.60;;;;;;5055336;28;20029;-77
2021/06/07 06:27:21;;;;;;;2.83;0.50;;;14.60;78.10;;;;;;5055817;28;20027;-77
2021/06/07 06:29:47;;;;;;;3.00;0.63;;;14.70;77.40;;;;;;5073156;28;20025;-77
2021/06/07 06:32:13;;;;;;;2.85;0.45;;;14.70;77.30;;;;;;5073327;28;20032;-78
2021/06/07 06:34:41;;;;;;;3.15;0.65;;;14.80;77.30;;;;;;5073219;28;20484;-78
2021/06/07 06:37:08;;;;;;;2.20;0.60;;;14.80;77.00;;;;;;5071650;28;20410;-76
2021/06/07 06:39:34;;;;;;;1.67;0.50;;;14.90;77.10;;;;;;5071972;28;20035;-75
2021/06/07 06:42:00;;;;;;;1.60;0.50;;;15.00;77.00;;;;;;5073032;28;20063;-76
2021/06/07 06:44:26;;;;;;;4.78;0.73;;;15.00;76.70;;;;;;5054845;28;20035;-75
2021/06/07 06:46:52;;;;;;;2.53;0.40;;;15.00;76.00;;;;;;5055398;28;20021;-75
2021/06/07 06:49:18;;;;;;;2.08;0.40;;;15.10;76.10;;;;;;5055569;28;20017;-75
2021/06/07 06:51:43;;;;;;;2.45;0.50;;;15.20;76.10;;;;;;5071850;28;20391;-75
2021/06/07 06:54:09;;;;;;;0.95;0.40;;;15.20;75.90;;;;;;5072008;28;20043;-75
2021/06/07 06:56:35;;;;;;;3.35;0.70;;;15.30;75.20;;;;;;5073152;28;20032;-75
2021/06/07 06:59:02;;;;;;;1.13;0.43;;;15.30;75.10;;;;;;5073032;28;20040;-76
2021/06/07 07:01:27;;;;;;;3.00;0.50;;;15.40;74.20;;;;;;5054842;28;20498;-75
2021/06/07 07:03:53;;;;;;;1.40;0.43;;;15.40;74.10;;;;;;5071446;28;20112;-75
2021/06/07 07:06:19;;;;;;;2.75;0.40;;;15.50;73.70;;;;;;5072620;28;20047;-74
2021/06/07 07:08:45;;;;;;;2.00;0.50;;;15.60;73.10;;;;;;5038395;28;20017;-75
2021/06/07 07:11:12;;;;;;;1.67;0.40;;;15.60;71.80;;;;;;5071157;28;20135;-75
2021/06/07 07:13:40;;;;;;;2.42;0.47;;;15.70;71.20;;;;;;5055100;28;20056;-75
2021/06/07 07:16:06;;;;;;;1.58;0.40;;;15.80;71.20;;;;;;5072498;28;20062;-75
2021/06/07 07:18:32;;;;;;;2.67;0.60;;;15.80;70.40;;;;;;5071306;28;20044;-74
2021/06/07 07:20:58;;;;;;;3.03;0.50;;;15.90;69.70;;;;;;5071543;28;20119;-75
2021/06/07 07:23:23;;;;;;;2.92;0.63;;;16.00;69.30;;;;;;5054706;28;20108;-75
2021/06/07 07:25:50;;;;;;;3.53;0.40;;;16.00;69.20;;;;;;5071337;28;20043;-74
2021/06/07 07:28:16;;;;;;;2.92;0.55;;;16.10;69.10;;;;;;5073781;28;20023;-74
2021/06/07 07:30:43;;;;;;;6.82;0.75;;;16.20;69.10;;;;;;5058567;28;20621;-75
2021/06/07 07:33:09;;;;;;;3.58;0.50;;;16.30;68.60;;;;;;5075553;28;20456;-75
2021/06/07 07:35:35;;;;;;;2.67;0.40;;;16.30;68.40;;;;;;5058650;28;20027;-75
2021/06/07 07:38:01;;;;;;;2.50;0.47;;;16.40;68.40;;;;;;5076866;28;20024;-73
2021/06/07 07:40:27;;;;;;;3.97;0.40;;;16.40;68.10;;;;;;5076455;28;20110;-75
2021/06/07 07:42:56;;;;;;;2.10;0.30;;;16.50;68.00;;;;;;5057944;28;20399;-75
2021/06/07 07:45:26;;;;;;;0.98;0.32;;;16.60;67.90;;;;;;5076090;28;20099;-75
2021/06/07 07:48:02;;;;;;;3.08;0.50;;;16.60;67.10;;;;;;5075267;28;20044;-78
2021/06/07 07:50:29;;;;;;;1.95;0.60;;;16.70;66.40;;;;;;5076256;28;20443;-76
2021/06/07 07:52:55;;;;;;;3.85;0.60;;;16.80;66.30;;;;;;5076269;28;20024;-77
2021/06/07 07:55:24;;;;;;;6.50;0.70;;;16.90;65.90;;;;;;5074036;28;20086;-77
2021/06/07 07:57:52;;;;;;;3.65;0.50;;;17.00;65.50;;;;;;5076159;28;20021;-76
2021/06/07 08:00:21;;;;;;;2.45;0.60;;;17.10;64.80;;;;;;5057637;28;20063;-77
2021/06/07 08:02:47;;;;;;;3.10;0.50;;;17.20;64.40;;;;;;5076217;28;20028;-77
2021/06/07 08:05:13;;;;;;;5.30;0.60;;;17.20;63.80;;;;;;5074730;28;20029;-77
2021/06/07 08:07:39;;;;;;;1.15;0.40;;;17.40;64.20;;;;;;5057980;28;20476;-77
2021/06/07 08:10:07;;;;;;;1.80;0.60;;;17.50;64.30;;;;;;5074628;28;20029;-77
2021/06/07 08:12:33;;;;;;;2.47;0.63;;;17.60;64.50;;;;;;5057668;28;20506;-77
2021/06/07 08:14:59;;;;;;;3.13;0.60;;;17.60;64.20;;;;;;5075512;28;20063;-77
2021/06/07 08:17:25;;;;;;;2.83;0.40;;;17.70;63.30;;;;;;5074391;28;20033;-76
2021/06/07 08:19:51;;;;;;;4.53;0.60;;;17.70;62.80;;;;;;5057712;28;20036;-76
2021/06/07 08:22:20;;;;;;;1.90;0.50;;;17.70;62.80;;;;;;5075684;28;20029;-76
2021/06/07 08:24:46;;;;;;;4.45;0.60;;;17.80;63.50;;;;;;5058346;28;20108;-78
2021/06/07 08:27:12;;;;;;;4.32;0.60;;;17.80;62.40;;;;;;5074364;28;20067;-76
2021/06/07 08:29:37;;;;;;;4.00;0.75;;;17.90;63.50;;;;;;5058094;28;20111;-77
2021/06/07 08:32:04;;;;;;;3.05;0.50;;;18.00;62.60;;;;;;5041355;28;20612;-77
2021/06/07 08:34:30;;;;;;;2.53;0.80;;;18.00;62.40;;;;;;5074867;28;20039;-78
2021/06/07 08:36:55;;;;;;;2.00;0.50;;;18.00;62.80;;;;;;5074748;28;20380;-76
2021/06/07 08:39:21;;;;;;;3.17;0.35;;;18.10;62.90;;;;;;5057856;28;20098;-79
2021/06/07 08:41:48;;;;;;;2.35;0.50;;;18.20;62.30;;;;;;5074431;28;20364;-78
2021/06/07 08:44:14;;;;;;;4.63;0.60;;;18.20;62.00;;;;;;5057094;28;20500;-76
2021/06/07 08:46:40;;;;;;;3.28;0.52;;;18.30;61.00;;;;;;5040795;28;20025;-78
2021/06/07 08:49:06;;;;;;;1.27;0.50;;;18.30;60.90;;;;;;5057502;28;20028;-77
2021/06/07 08:51:32;;;;;;;2.65;0.50;;;18.40;60.80;;;;;;5074047;28;20020;-76
2021/06/07 08:53:57;;;;;;;2.13;0.50;;;18.50;60.50;;;;;;5074052;28;20472;-77
2021/06/07 08:56:29;;;;;;;4.65;0.50;;;18.50;60.50;;;;;;5040743;28;20035;-77
2021/06/07 08:58:55;;;;;;;3.70;0.50;;;18.60;60.60;;;;;;5074999;28;20086;-77
2021/06/07 09:01:20;;;;;;;2.58;0.63;;;18.60;59.70;;;;;;5057055;28;20025;-79
2021/06/07 09:03:46;;;;;;;5.50;0.50;;;18.70;59.60;;;;;;5040472;28;20024;-77
2021/06/07 09:06:13;;;;;;;4.80;0.65;;;18.80;59.60;;;;;;5056900;28;20033;-77
2021/06/07 09:08:40;;;;;;;2.03;0.50;;;18.90;59.00;;;;;;5074870;28;20111;-77
2021/06/07 09:11:12;;;;;;;2.72;0.50;;;18.90;58.80;;;;;;5074934;28;20032;-78
2021/06/07 09:13:38;;;;;;;2.47;0.55;;;19.00;58.30;;;;;;5073846;28;20069;-76
2021/06/07 09:16:06;;;;;;;2.33;0.40;;;19.10;58.50;;;;;;5073877;28;20044;-77
2021/06/07 09:18:39;;;;;;;1.95;0.43;;;19.30;58.70;;;;;;5073421;28;20028;-77
2021/06/07 09:21:15;;;;;;;1.37;0.43;;;19.30;58.30;;;;;;5074347;28;20032;-77
2021/06/07 09:23:44;;;;;;;7.20;0.80;;;19.40;58.00;;;;;;5073178;28;20362;-76
2021/06/07 09:26:29;;;;;;;3.20;0.40;;;19.50;57.90;;;;;;5073452;28;20017;-77
2021/06/07 09:28:57;;;;;;;1.75;0.30;;;19.60;57.80;;;;;;5068419;28;20029;-77
2021/06/07 09:31:35;;;;;;;4.25;0.57;;;19.60;57.10;;;;;;5073417;28;20025;-77
2021/06/07 09:34:07;;;;;;;1.23;0.40;;;19.70;56.60;;;;;;5073200;28;20017;-79
2021/06/07 09:36:41;;;;;;;1.65;0.50;;;19.80;56.80;;;;;;5074467;28;20064;-79
2021/06/07 09:39:07;;;;;;;2.75;0.57;;;19.90;57.10;;;;;;5072967;28;20105;-77
2021/06/07 09:41:45;;;;;;;6.70;0.50;;;20.00;56.70;;;;;;5074105;28;20028;-77
2021/06/07 09:44:36;;;;;;;1.50;0.43;;;20.00;55.70;;;;;;5073511;28;20145;-79
2021/06/07 09:47:14;;;;;;;2.97;0.50;;;20.10;55.40;;;;;;5051535;28;20020;-76
2021/06/07 09:49:39;;;;;;;3.25;0.73;;;20.20;55.20;;;;;;5071551;28;20107;-77
2021/06/07 09:52:10;;;;;;;1.98;0.50;;;20.20;55.40;;;;;;5073225;28;20059;-78
2021/06/07 09:54:37;;;;;;;9.00;0.70;;;20.30;55.10;;;;;;5074170;28;20036;-79
2021/06/07 09:57:03;;;;;;;4.72;0.60;;;20.40;55.30;;;;;;5056033;28;20417;-76
2021/06/07 09:59:43;;;;;;;2.38;0.50;;;20.50;55.40;;;;;;5072506;28;20028;-77
2021/06/07 10:02:17;;;;;;;3.38;0.60;;;20.60;55.40;;;;;;5074131;28;20020;-77
2021/06/07 10:04:47;;;;;;;2.97;0.75;;;20.60;55.20;;;;;;5073923;28;20414;-76
2021/06/07 10:07:13;;;;;;;1.55;0.45;;;20.70;55.20;;;;;;5073825;28;20456;-77
2021/06/07 10:09:39;;;;;;;1.35;0.30;;;20.70;55.10;;;;;;5054872;28;20029;-77
2021/06/07 10:12:24;;;;;;;3.00;0.70;;;20.80;54.60;;;;;;5034094;28;20025;-80
2021/06/07 10:14:49;;;;;;;3.33;0.50;;;20.90;55.00;;;;;;5052299;28;20021;-76
2021/06/07 10:17:15;;;;;;;2.45;0.60;;;21.00;55.40;;;;;;5035641;28;20396;-76
2021/06/07 10:19:59;;;;;;;1.58;0.50;;;21.00;55.40;;;;;;5066913;28;20028;-76
2021/06/07 10:22:24;;;;;;;2.45;0.50;;;21.10;55.20;;;;;;5056503;28;20029;-78
2021/06/07 10:24:50;;;;;;;1.75;0.40;;;21.20;54.70;;;;;;5071862;28;20021;-77
2021/06/07 10:27:16;;;;;;;2.17;0.50;;;21.30;53.90;;;;;;5072070;28;20385;-77
2021/06/07 10:29:42;;;;;;;2.88;0.50;;;21.40;53.60;;;;;;5072237;28;20052;-79
2021/06/07 10:32:14;;;;;;;3.03;0.65;;;21.60;53.30;;;;;;5072273;28;20111;-79
2021/06/07 10:34:51;;;;;;;5.22;0.63;;;21.70;52.80;;;;;;5072144;28;20025;-77
2021/06/07 10:37:17;;;;;;;1.60;0.52;;;21.90;53.10;;;;;;5073623;28;20035;-78
2021/06/07 10:39:44;;;;;;;2.25;0.68;;;22.10;53.30;;;;;;5072227;28;20112;-77
2021/06/07 10:42:09;;;;;;;3.17;0.50;;;22.30;52.60;;;;;;5071999;28;20021;-77
2021/06/07 10:44:46;;;;;;;2.63;0.52;;;22.60;52.10;;;;;;5071913;28;20036;-76
2021/06/07 10:47:18;;;;;;;2.45;0.70;;;23.00;50.20;;;;;;5073524;28;20458;-78
2021/06/07 10:49:57;;;;;;;3.00;0.45;;;23.30;49.30;;;;;;5072216;28;20017;-80
2021/06/07 10:52:26;;;;;;;2.40;0.50;;;23.60;48.80;;;;;;5071772;28;20052;-78
2021/06/07 10:55:00;;;;;;;2.42;0.52;;;23.90;49.80;;;;;;5072672;28;20480;-79
2021/06/07 10:57:26;;;;;;;1.88;0.40;;;24.30;49.90;;;;;;5059102;28;20399;-78
2021/06/07 10:59:56;;;;;;;1.88;0.45;;;24.80;49.70;;;;;;5064160;28;20028;-80
2021/06/07 11:02:24;;;;;;;2.40;0.52;;;25.40;49.50;;;;;;5072311;28;20078;-79
2021/06/07 11:05:06;;;;;;;1.58;0.50;;;26.00;48.20;;;;;;5077328;28;20024;-79
2021/06/07 11:07:32;;;;;;;0.85;0.38;;;26.80;46.50;;;;;;5076621;28;20054;-80
2021/06/07 11:10:17;;;;;;;1.92;0.45;;;27.40;45.50;;;;;;5059298;28;20025;-81
2021/06/07 11:12:43;;;;;;;2.05;0.50;;;28.00;43.50;;;;;;5055644;28;20554;-77
2021/06/07 11:15:17;;;;;;;2.03;0.50;;;28.70;43.80;;;;;;5056236;28;20025;-78
2021/06/07 11:17:44;;;;;;;1.20;0.50;;;29.20;42.70;;;;;;5057155;28;20021;-80
2021/06/07 11:20:11;;;;;;;3.55;0.60;;;29.80;42.10;;;;;;5039559;28;20036;-82
2021/06/07 11:23:01;;;;;;;0.93;0.40;;;30.30;41.70;;;;;;5038965;28;20406;-79
2021/06/07 11:25:27;;;;;;;3.03;0.55;;;30.90;40.40;;;;;;5056451;28;20051;-80
2021/06/07 11:27:53;;;;;;;1.67;0.30;;;31.40;40.80;;;;;;5052004;28;20028;-77
2021/06/07 11:30:20;;;;;;;2.08;0.40;;;31.70;40.30;;;;;;5075593;28;20457;-80
2021/06/07 11:32:47;;;;;;;1.13;0.40;;;31.80;39.60;;;;;;5075292;28;20021;-81
2021/06/07 11:35:42;;;;;;;0.85;0.35;;;31.80;38.80;;;;;;5058503;28;20436;-82
2021/06/07 11:38:33;;;;;;;2.30;0.30;;;31.70;37.70;;;;;;5075823;28;20033;-83
2021/06/07 11:41:26;;;;;;;2.33;0.40;;;31.70;37.50;;;;;;5074979;28;20576;-82
2021/06/07 11:43:53;;;;;;;0.83;0.30;;;31.60;37.60;;;;;;5075206;28;20053;-82
2021/06/07 11:46:31;;;;;;;1.60;0.30;;;31.50;37.70;;;;;;5075197;28;20024;-81
2021/06/07 11:49:13;;;;;;;1.77;0.47;;;31.50;36.90;;;;;;5076137;28;20034;-79
2021/06/07 11:51:41;;;;;;;1.60;0.40;;;31.50;36.30;;;;;;5074572;28;20040;-82
2021/06/07 11:54:25;;;;;;;1.38;0.30;;;31.50;36.40;;;;;;5074937;28;20085;-83
2021/06/07 11:56:55;;;;;;;3.35;0.40;;;31.50;36.00;;;;;;5074202;28;20511;-83
2021/06/07 11:59:25;;;;;;;1.90;0.40;;;31.50;36.20;;;;;;5057924;28;20089;-82
2021/06/07 12:01:52;;;;;;;2.92;0.40;;;31.60;36.00;;;;;;5058152;28;20040;-83
2021/06/07 12:04:29;;;;;;;2.28;0.50;;;31.60;36.00;;;;;;5074622;28;20016;-78
2021/06/07 12:07:21;;;;;;;2.25;0.40;;;31.60;36.00;;;;;;5058032;28;20025;-76
2021/06/07 12:09:53;;;;;;;1.38;0.40;;;31.60;35.40;;;;;;5071778;28;20495;-76
2021/06/07 12:12:20;;;;;;;1.35;0.20;;;31.50;35.80;;;;;;5075947;28;20078;-77
2021/06/07 12:14:47;;;;;;;2.83;0.40;;;31.50;35.60;;;;;;5073996;28;20032;-76
2021/06/07 12:17:19;;;;;;;1.85;0.30;;;31.50;35.40;;;;;;5074490;28;20009;-78
2021/06/07 12:20:01;;;;;;;1.83;0.40;;;31.60;35.60;;;;;;5075491;28;20025;-80
2021/06/07 12:22:40;;;;;;;1.50;0.32;;;31.70;35.50;;;;;;5074441;28;20073;-79
2021/06/07 12:30:40;;;;;;;2.90;0.30;;;32.00;35.80;;;;;;5075897;28;20039;-78
2021/06/07 12:33:07;;;;;;;1.83;0.30;;;32.10;35.70;;;;;;5074314;28;20419;-82
2021/06/07 12:35:36;;;;;;;3.15;0.45;;;32.30;35.50;;;;;;5074193;28;20059;-78
2021/06/07 12:38:04;;;;;;;3.85;0.50;;;32.40;35.30;;;;;;5058049;28;20467;-78
2021/06/07 12:40:41;;;;;;;1.08;0.40;;;32.50;35.40;;;;;;5073826;28;20048;-78
2021/06/07 12:43:07;;;;;;;2.90;0.25;;;32.60;35.10;;;;;;5073781;28;20136;-78
2021/06/07 12:45:54;;;;;;;1.23;0.40;;;32.80;35.10;;;;;;5073662;28;20036;-79
2021/06/07 12:48:41;;;;;;;1.70;0.40;;;32.90;35.00;;;;;;5073104;28;20029;-79
2021/06/07 12:51:18;;;;;;;1.35;0.40;;;33.10;34.50;;;;;;5057478;28;20120;-79
2021/06/07 12:53:55;;;;;;;1.98;0.43;;;33.20;34.50;;;;;;5073696;28;20032;-79
2021/06/07 12:56:27;;;;;;;1.75;0.40;;;33.40;34.30;;;;;;5073526;28;20033;-79
2021/06/07 12:58:55;;;;;;;2.65;0.50;;;33.50;33.80;;;;;;5073511;28;20032;-78
2021/06/07 13:01:40;;;;;;;0.68;0.20;;;33.70;33.70;;;;;;5073085;28;20029;-81